createdAt,value
2023-01-11T00:02:35.614Z,1.40
2023-01-11T00:07:57.199Z,1.23
2023-01-11T00:13:19.352Z,1.43
2023-01-11T00:18:41.162Z,1.23
2023-01-11T00:24:02.733Z,1.57
2023-01-11T00:29:24.345Z,1.60
2023-01-11T00:34:45.831Z,1.17
2023-01-11T00:40:08.193Z,1.53
2023-01-11T00:45:48.640Z,1.50
2023-01-11T00:51:10.202Z,1.80
2023-01-11T00:56:32.026Z,1.60
2023-01-11T01:01:53.421Z,1.50
2023-01-11T01:07:14.848Z,1.50
2023-01-11T01:12:55.102Z,1.40
2023-01-11T01:18:16.643Z,1.67
2023-01-11T01:23:38.071Z,1.60
2023-01-11T01:28:59.611Z,1.20
2023-01-11T01:34:21.246Z,1.40
2023-01-11T01:39:43.205Z,1.60
2023-01-11T01:45:25.462Z,1.00
2023-01-11T01:50:57.312Z,1.23
2023-01-11T01:56:35.004Z,1.40
2023-01-11T02:01:57.850Z,1.23
2023-01-11T02:07:32.079Z,1.60
2023-01-11T02:13:03.169Z,1.37
2023-01-11T02:18:24.612Z,1.23
2023-01-11T02:24:17.998Z,1.60
2023-01-11T02:30:33.312Z,1.40
2023-01-11T02:36:16.756Z,1.10
2023-01-11T02:42:15.062Z,1.23
2023-01-11T02:48:02.418Z,1.33
2023-01-11T02:54:02.655Z,1.13
2023-01-11T02:59:29.456Z,1.13
2023-01-11T03:04:51.012Z,1.40
2023-01-11T03:10:21.635Z,1.23
2023-01-11T03:16:08.770Z,1.00
2023-01-11T03:22:04.761Z,0.70
2023-01-11T03:27:29.267Z,1.07
2023-01-11T03:33:09.280Z,0.90
2023-01-11T03:38:54.215Z,1.30
2023-01-11T03:44:19.150Z,0.80
2023-01-11T03:49:56.308Z,0.90
2023-01-11T03:55:18.174Z,1.00
2023-01-11T04:00:40.345Z,1.10
2023-01-11T04:06:02.515Z,1.10
2023-01-11T04:11:23.753Z,1.30
2023-01-11T04:16:45.416Z,1.13
2023-01-11T04:22:06.922Z,1.07
2023-01-11T04:27:28.350Z,1.00
2023-01-11T04:32:49.853Z,0.90
2023-01-11T04:38:11.610Z,1.10
2023-01-11T04:43:33.094Z,0.97
2023-01-11T04:48:56.516Z,0.77
2023-01-11T04:54:18.182Z,1.20
2023-01-11T04:59:39.949Z,0.80
2023-01-11T05:05:01.245Z,1.10
2023-01-11T05:10:22.762Z,0.67
2023-01-11T05:15:44.285Z,1.00
2023-01-11T05:21:06.605Z,0.80
2023-01-11T05:26:33.853Z,0.97
2023-01-11T05:31:55.946Z,1.10
2023-01-11T05:37:17.543Z,1.07
2023-01-11T05:42:38.840Z,1.13
2023-01-11T05:48:00.554Z,1.20
2023-01-11T05:53:24.047Z,1.20
2023-01-11T05:58:49.102Z,1.00
2023-01-11T06:04:10.631Z,1.10
2023-01-11T06:09:32.314Z,1.10
2023-01-11T06:14:53.722Z,1.43
2023-01-11T06:20:15.582Z,1.30
2023-01-11T06:25:37.787Z,0.90
2023-01-11T06:31:00.303Z,1.00
2023-01-11T06:36:21.509Z,1.00
2023-01-11T06:41:42.735Z,0.57
2023-01-11T06:47:04.479Z,0.73
2023-01-11T06:52:25.992Z,0.73
2023-01-11T06:57:47.625Z,0.60
2023-01-11T07:03:10.909Z,0.73
2023-01-11T07:08:32.681Z,0.73
2023-01-11T07:13:54.200Z,0.70
2023-01-11T07:19:15.612Z,0.70
2023-01-11T07:24:39.897Z,0.80
2023-01-11T07:30:01.201Z,0.80
2023-01-11T07:35:22.735Z,0.60
2023-01-11T07:40:44.304Z,0.80
2023-01-11T07:46:06.106Z,0.70
2023-01-11T07:51:27.452Z,0.67
2023-01-11T07:56:49.154Z,0.70
2023-01-11T08:02:11.968Z,0.60
2023-01-11T08:07:33.285Z,0.50
2023-01-11T08:13:13.192Z,0.70
2023-01-11T08:18:34.688Z,0.90
2023-01-11T08:23:59.912Z,0.70
2023-01-11T08:29:21.158Z,0.73
2023-01-11T08:34:42.649Z,0.70
2023-01-11T08:40:04.715Z,0.90
2023-01-11T08:45:26.683Z,0.73
2023-01-11T08:50:48.272Z,0.77
2023-01-11T08:56:10.029Z,0.70
2023-01-11T09:01:31.557Z,0.60
2023-01-11T09:06:53.639Z,0.80
2023-01-11T09:12:15.173Z,0.60
2023-01-11T09:17:36.827Z,0.80
2023-01-11T09:22:58.405Z,0.50
2023-01-11T09:28:20.008Z,0.50
2023-01-11T09:33:41.613Z,0.70
2023-01-11T09:39:07.766Z,0.63
2023-01-11T09:44:31.033Z,0.70
2023-01-11T09:49:58.420Z,0.70
2023-01-11T09:55:27.132Z,0.60
2023-01-11T10:01:13.112Z,0.60
2023-01-11T10:06:48.792Z,0.53
2023-01-11T10:18:40.287Z,0.60
2023-01-11T10:24:12.736Z,0.43
2023-01-11T10:29:50.341Z,0.50
2023-01-11T10:36:06.930Z,0.70
2023-01-11T10:41:57.269Z,0.30
2023-01-11T10:47:22.323Z,0.50
2023-01-11T10:53:15.822Z,0.67
2023-01-11T10:58:53.483Z,0.60
2023-01-11T11:04:39.551Z,0.57
2023-01-11T11:10:19.198Z,0.50
2023-01-11T11:15:55.944Z,0.60
2023-01-11T11:21:22.551Z,0.40
2023-01-11T11:26:47.446Z,0.60
2023-01-11T11:32:19.945Z,0.60
2023-01-11T11:37:44.890Z,0.60
2023-01-11T11:43:12.299Z,0.70
2023-01-11T11:48:34.948Z,0.70
2023-01-11T11:53:57.898Z,0.70
2023-01-11T11:59:21.649Z,0.63
2023-01-11T12:04:48.598Z,0.70
2023-01-11T12:10:20.309Z,0.60
2023-01-11T12:15:54.896Z,0.50
2023-01-11T12:21:29.552Z,0.40
2023-01-11T12:27:27.005Z,0.77
2023-01-11T12:33:12.603Z,0.63
2023-01-11T12:38:52.526Z,0.57
2023-01-11T12:44:45.750Z,0.60
2023-01-11T12:50:18.513Z,0.60
2023-01-11T12:55:57.048Z,0.60
2023-01-11T13:01:42.058Z,0.70
2023-01-11T13:07:22.227Z,0.70
2023-01-11T13:13:24.951Z,0.67
2023-01-11T13:18:59.326Z,0.93
2023-01-11T13:24:31.856Z,0.80
2023-01-11T13:29:56.282Z,0.70
2023-01-11T13:35:21.803Z,0.60
2023-01-11T13:40:58.515Z,0.77
2023-01-11T13:46:51.071Z,0.90
2023-01-11T13:52:26.202Z,0.80
2023-01-11T13:57:56.628Z,0.80
2023-01-11T14:03:24.119Z,0.70
2023-01-11T14:09:22.931Z,0.80
2023-01-11T14:15:02.620Z,0.70
2023-01-11T14:20:36.996Z,0.70
2023-01-11T14:26:13.563Z,0.87
2023-01-11T14:31:40.700Z,0.70
2023-01-11T14:37:29.763Z,0.90
2023-01-11T14:43:13.135Z,1.00
2023-01-11T14:48:40.638Z,1.20
2023-01-11T14:54:07.766Z,0.90
2023-01-11T14:59:36.613Z,1.20
2023-01-11T15:04:58.045Z,1.20
2023-01-11T15:10:31.623Z,1.20
2023-01-11T15:16:25.300Z,1.53
2023-01-11T15:21:50.781Z,4.50
2023-01-11T15:27:48.528Z,1.90
2023-01-11T15:33:19.076Z,4.13
2023-01-11T15:39:05.619Z,1.70
2023-01-11T15:44:40.500Z,2.00
2023-01-11T15:50:27.163Z,1.87
2023-01-11T15:56:07.241Z,1.70
2023-01-11T16:01:29.747Z,3.70
2023-01-11T16:06:57.084Z,2.00
2023-01-11T16:12:24.374Z,2.00
2023-01-11T16:17:47.767Z,3.93
2023-01-11T16:23:15.464Z,2.10
2023-01-11T16:28:37.577Z,2.13
2023-01-11T16:34:07.321Z,2.03
2023-01-11T16:39:33.249Z,2.40
2023-01-11T16:45:04.251Z,2.53
2023-01-11T16:50:26.030Z,2.30
2023-01-11T16:56:03.041Z,2.70
2023-01-11T17:01:24.454Z,2.37
2023-01-11T17:06:46.021Z,2.50
2023-01-11T17:12:08.384Z,2.20
2023-01-11T17:17:36.661Z,2.90
2023-01-11T17:22:59.234Z,2.93
2023-01-11T17:28:20.929Z,2.33
2023-01-11T17:33:42.577Z,2.40
2023-01-11T17:39:05.682Z,2.77
2023-01-11T17:44:45.462Z,2.30
2023-01-11T17:50:17.856Z,2.30
2023-01-11T17:55:56.791Z,2.03
2023-01-11T18:01:23.418Z,2.27
2023-01-11T18:06:45.692Z,2.30
2023-01-11T18:12:07.294Z,4.40
2023-01-11T18:17:36.582Z,2.47
2023-01-11T18:23:05.217Z,2.37
2023-01-11T18:28:36.613Z,2.60
2023-01-11T18:33:58.465Z,2.40
2023-01-11T18:39:19.992Z,3.23
2023-01-11T18:44:43.633Z,2.97
2023-01-11T18:50:05.558Z,2.73
2023-01-11T18:55:28.015Z,3.00
2023-01-11T19:00:49.346Z,3.33
2023-01-11T19:06:13.340Z,3.70
2023-01-11T19:11:34.655Z,3.00
2023-01-11T19:16:56.194Z,4.00
2023-01-11T19:22:17.761Z,2.97
2023-01-11T19:27:39.295Z,3.67
2023-01-11T19:33:00.855Z,3.80
2023-01-11T19:38:22.457Z,3.00
2023-01-11T19:43:47.302Z,4.47
2023-01-11T19:49:08.844Z,4.20
2023-01-11T19:54:30.450Z,4.33
2023-01-11T19:59:51.977Z,3.53
2023-01-11T20:05:13.739Z,4.30
2023-01-11T20:10:35.256Z,4.27
2023-01-11T20:15:56.690Z,4.10
2023-01-11T20:21:18.416Z,4.40
2023-01-11T20:26:40.544Z,3.33
2023-01-11T20:32:21.156Z,3.70
2023-01-11T20:37:44.751Z,3.43
2023-01-11T20:43:06.286Z,3.27
2023-01-11T20:48:28.315Z,3.67
2023-01-11T20:53:49.587Z,2.80
2023-01-11T21:04:31.377Z,3.23
2023-01-11T21:09:53.052Z,3.00
2023-01-11T21:15:14.365Z,2.80
2023-01-11T21:20:36.044Z,2.97
2023-01-11T21:25:57.412Z,2.87
2023-01-11T21:31:21.353Z,2.80
2023-01-11T21:36:44.111Z,3.03
2023-01-11T21:42:05.715Z,2.90
2023-01-11T21:47:27.265Z,2.67
2023-01-11T21:52:48.762Z,2.87
2023-01-11T21:58:10.061Z,2.87
2023-01-11T22:03:31.468Z,2.37
2023-01-11T22:08:53.038Z,2.67
2023-01-11T22:14:14.374Z,2.60
2023-01-11T22:19:35.632Z,2.60
2023-01-11T22:24:58.932Z,2.57
2023-01-11T22:30:20.587Z,2.37
2023-01-11T22:35:42.274Z,2.60
2023-01-11T22:41:03.779Z,2.37
2023-01-11T22:46:27.067Z,2.50
2023-01-11T22:51:48.489Z,2.80
2023-01-11T22:57:10.053Z,2.40
2023-01-11T23:02:31.315Z,2.80
2023-01-11T23:07:52.825Z,2.70
2023-01-11T23:13:32.924Z,2.70
2023-01-11T23:18:54.603Z,2.53
2023-01-11T23:24:17.393Z,2.40
2023-01-11T23:29:39.253Z,2.33
2023-01-11T23:35:00.582Z,2.57
2023-01-11T23:40:22.071Z,2.20
2023-01-11T23:45:43.472Z,2.43
2023-01-11T23:51:05.517Z,2.37
2023-01-11T23:56:28.581Z,2.43
